Time,TemperatureF,DewpointF,PressureIn,WindDirection,WindDirectionDegrees,WindSpeedMPH,WindSpeedGustMPH,Humidity,HourlyPrecipIn,Conditions,Clouds,dailyrainin,SoftwareType,DateUTC
2013-10-31 00:00:00,27.3,26.8,30.18,North,0,0.0,-999.0,98,-99.99,,,0.00,Acu-Link.com,2013-10-31 04:00:00,
2013-10-31 00:15:00,27.5,25.7,30.17,North,0,0.0,-999.0,93,-99.99,,,0.00,Acu-Link.com,2013-10-31 04:15:00,
2013-10-31 00:31:00,27.1,26.7,30.17,North,0,0.0,-999.0,98,-99.99,,,0.00,Acu-Link.com,2013-10-31 04:31:00,
2013-10-31 00:46:00,27.1,26.7,30.17,North,0,0.0,-999.0,98,-99.99,,,0.00,Acu-Link.com,2013-10-31 04:46:00,
2013-10-31 01:01:00,27.5,27.0,30.17,North,0,0.0,-999.0,98,-99.99,,,0.00,Acu-Link.com,2013-10-31 05:01:00,
2013-10-31 01:16:00,27.7,27.2,30.17,North,0,0.0,-999.0,98,-99.99,,,0.00,Acu-Link.com,2013-10-31 05:16:00,
2013-10-31 01:32:00,28.4,27.9,30.16,North,0,0.0,-999.0,98,-99.99,,,0.00,Acu-Link.com,2013-10-31 05:32:00,
2013-10-31 01:47:00,29.1,28.6,30.14,North,0,0.0,-999.0,98,-99.99,,,0.00,Acu-Link.com,2013-10-31 05:47:00,
2013-10-31 02:02:00,29.3,28.8,30.15,North,0,0.0,-999.0,98,-99.99,,,0.00,Acu-Link.com,2013-10-31 06:02:00,
2013-10-31 02:17:00,29.5,29.0,30.15,North,0,0.0,-999.0,98,-99.99,,,0.00,Acu-Link.com,2013-10-31 06:17:00,
2013-10-31 02:32:00,29.7,29.2,30.14,North,0,0.0,-999.0,98,-99.99,,,0.00,Acu-Link.com,2013-10-31 06:32:00,
2013-10-31 02:47:00,29.3,28.8,30.15,North,0,0.0,-999.0,98,-99.99,,,0.00,Acu-Link.com,2013-10-31 06:47:00,
2013-10-31 03:03:00,29.7,29.2,30.14,North,0,0.0,-999.0,98,-99.99,,,0.00,Acu-Link.com,2013-10-31 07:03:00,
2013-10-31 03:18:00,29.5,29.0,30.14,North,0,0.0,-999.0,98,-99.99,,,0.00,Acu-Link.com,2013-10-31 07:18:00,
2013-10-31 03:34:00,29.3,28.8,30.14,North,0,0.0,-999.0,98,-99.99,,,0.00,Acu-Link.com,2013-10-31 07:34:00,
2013-10-31 03:49:00,29.3,28.8,30.13,North,0,0.0,-999.0,98,-99.99,,,0.00,Acu-Link.com,2013-10-31 07:49:00,
2013-10-31 04:04:00,29.8,29.3,30.12,North,0,0.0,-999.0,98,-99.99,,,0.00,Acu-Link.com,2013-10-31 08:04:00,
2013-10-31 04:19:00,29.8,29.3,30.12,North,0,0.0,-999.0,98,-99.99,,,0.00,Acu-Link.com,2013-10-31 08:19:00,
2013-10-31 04:34:00,30.2,29.7,30.13,North,0,0.0,-999.0,98,-99.99,,,0.00,Acu-Link.com,2013-10-31 08:34:00,
2013-10-31 04:49:00,30.4,29.9,30.12,North,0,0.0,-999.0,98,-99.99,,,0.00,Acu-Link.com,2013-10-31 08:49:00,
2013-10-31 05:04:00,30.7,30.2,30.12,North,0,0.0,-999.0,98,-99.99,,,0.00,Acu-Link.com,2013-10-31 09:04:00,
2013-10-31 05:19:00,30.9,30.4,30.10,North,0,0.0,-999.0,98,-99.99,,,0.00,Acu-Link.com,2013-10-31 09:19:00,
2013-10-31 05:34:00,30.9,30.4,30.10,North,0,0.0,-999.0,98,-99.99,,,0.00,Acu-Link.com,2013-10-31 09:34:00,
2013-10-31 05:49:00,30.7,30.2,30.10,North,0,0.0,-999.0,98,-99.99,,,0.00,Acu-Link.com,2013-10-31 09:49:00,
2013-10-31 06:05:00,30.9,30.4,30.11,North,0,0.0,-999.0,98,-99.99,,,0.00,Acu-Link.com,2013-10-31 10:05:00,
2013-10-31 06:20:00,31.3,30.8,30.09,North,0,0.0,-999.0,98,-99.99,,,0.00,Acu-Link.com,2013-10-31 10:20:00,
2013-10-31 06:35:00,31.3,30.8,30.08,North,0,0.0,-999.0,98,-99.99,,,0.00,Acu-Link.com,2013-10-31 10:35:00,
2013-10-31 06:50:00,31.5,31.0,30.06,North,0,0.0,-999.0,98,-99.99,,,0.00,Acu-Link.com,2013-10-31 10:50:00,
2013-10-31 07:05:00,31.8,31.3,30.05,North,0,0.0,-999.0,98,-99.99,,,0.00,Acu-Link.com,2013-10-31 11:05:00,
2013-10-31 07:20:00,32.2,31.7,30.05,North,0,0.0,-999.0,98,-99.99,,,0.00,Acu-Link.com,2013-10-31 11:20:00,
2013-10-31 07:35:00,32.2,31.7,30.05,North,0,0.0,-999.0,98,-99.99,,,0.00,Acu-Link.com,2013-10-31 11:35:00,
2013-10-31 07:51:00,32.4,31.9,30.05,North,0,0.0,-999.0,98,-99.99,,,0.00,Acu-Link.com,2013-10-31 11:51:00,
2013-10-31 08:06:00,32.5,32.0,30.03,North,0,0.0,-999.0,98,-99.99,,,0.00,Acu-Link.com,2013-10-31 12:06:00,
2013-10-31 08:21:00,32.7,32.2,30.03,North,0,0.0,-999.0,98,-99.99,,,0.00,Acu-Link.com,2013-10-31 12:21:00,
2013-10-31 08:36:00,33.1,32.6,30.02,North,0,0.0,-999.0,98,-99.99,,,0.00,Acu-Link.com,2013-10-31 12:36:00,
2013-10-31 08:51:00,33.8,33.3,30.02,North,0,0.0,-999.0,98,-99.99,,,0.00,Acu-Link.com,2013-10-31 12:51:00,
2013-10-31 09:07:00,34.2,33.7,30.02,North,0,0.0,-999.0,98,-99.99,,,0.00,Acu-Link.com,2013-10-31 13:07:00,
2013-10-31 09:22:00,34.7,34.2,30.01,North,0,0.0,-999.0,98,-99.99,,,0.00,Acu-Link.com,2013-10-31 13:22:00,
2013-10-31 09:37:00,35.2,34.7,30.01,North,0,0.0,-999.0,98,-99.99,,,0.00,Acu-Link.com,2013-10-31 13:37:00,
2013-10-31 09:52:00,36.1,35.6,29.99,North,0,0.0,-999.0,98,-99.99,,,0.00,Acu-Link.com,2013-10-31 13:52:00,
2013-10-31 10:07:00,36.7,36.2,29.98,North,0,0.0,-999.0,98,-99.99,,,0.00,Acu-Link.com,2013-10-31 14:07:00,
2013-10-31 10:23:00,37.4,36.9,29.98,North,0,0.0,-999.0,98,-99.99,,,0.00,Acu-Link.com,2013-10-31 14:23:00,
2013-10-31 10:38:00,37.8,37.2,29.97,North,0,2.7,-999.0,98,-99.99,,,0.00,Acu-Link.com,2013-10-31 14:38:00,
2013-10-31 10:53:00,37.9,37.4,29.95,North,0,0.0,-999.0,98,-99.99,,,0.00,Acu-Link.com,2013-10-31 14:53:00,
2013-10-31 11:08:00,37.8,37.2,29.95,North,0,0.0,-999.0,98,-99.99,,,0.00,Acu-Link.com,2013-10-31 15:08:00,
2013-10-31 11:23:00,38.3,37.8,29.94,North,0,0.0,-999.0,98,-99.99,,,0.00,Acu-Link.com,2013-10-31 15:23:00,
2013-10-31 11:39:00,38.5,38.0,29.93,North,0,0.0,-999.0,98,-99.99,,,0.00,Acu-Link.com,2013-10-31 15:39:00,
2013-10-31 11:54:00,38.7,38.1,29.91,North,0,0.0,-999.0,98,-99.99,,,0.00,Acu-Link.com,2013-10-31 15:54:00,
2013-10-31 12:09:00,38.7,38.1,29.90,North,0,0.0,-999.0,98,-99.99,,,0.01,Acu-Link.com,2013-10-31 16:09:00,
2013-10-31 12:24:00,38.7,38.1,29.89,North,0,0.0,-999.0,98,-99.99,,,0.02,Acu-Link.com,2013-10-31 16:24:00,
2013-10-31 12:39:00,38.7,38.1,29.87,North,0,0.0,-999.0,98,-99.99,,,0.04,Acu-Link.com,2013-10-31 16:39:00,
2013-10-31 12:55:00,38.7,38.1,29.86,North,0,0.0,-999.0,98,-99.99,,,0.08,Acu-Link.com,2013-10-31 16:55:00,
2013-10-31 13:10:00,38.8,38.3,29.85,North,0,0.0,-999.0,98,-99.99,,,0.11,Acu-Link.com,2013-10-31 17:10:00,
2013-10-31 13:25:00,39.0,38.5,29.83,North,0,0.0,-999.0,98,-99.99,,,0.13,Acu-Link.com,2013-10-31 17:25:00,
2013-10-31 13:40:00,39.2,38.7,29.81,North,0,2.2,-999.0,98,-99.99,,,0.13,Acu-Link.com,2013-10-31 17:40:00,
2013-10-31 13:55:00,39.2,38.7,29.80,North,0,0.0,-999.0,98,-99.99,,,0.17,Acu-Link.com,2013-10-31 17:55:00,
2013-10-31 14:11:00,39.4,38.9,29.79,North,0,0.0,-999.0,98,-99.99,,,0.19,Acu-Link.com,2013-10-31 18:11:00,
2013-10-31 14:26:00,39.4,38.9,29.78,North,0,0.0,-999.0,98,-99.99,,,0.21,Acu-Link.com,2013-10-31 18:26:00,
2013-10-31 14:41:00,39.7,39.2,29.75,NE,45,0.0,-999.0,98,-99.99,,,0.24,Acu-Link.com,2013-10-31 18:41:00,
2013-10-31 14:56:00,39.7,39.2,29.75,North,0,0.0,-999.0,98,-99.99,,,0.31,Acu-Link.com,2013-10-31 18:56:00,
2013-10-31 15:11:00,39.9,39.4,29.74,ENE,67,1.6,-999.0,98,-99.99,,,0.34,Acu-Link.com,2013-10-31 19:11:00,
2013-10-31 15:26:00,40.1,39.6,29.74,ENE,67,1.6,-999.0,98,-99.99,,,0.40,Acu-Link.com,2013-10-31 19:26:00,
2013-10-31 15:42:00,40.1,39.6,29.72,North,0,0.0,-999.0,98,-99.99,,,0.44,Acu-Link.com,2013-10-31 19:42:00,
2013-10-31 15:57:00,40.3,39.8,29.72,North,0,0.0,-999.0,98,-99.99,,,0.52,Acu-Link.com,2013-10-31 19:57:00,
2013-10-31 16:12:00,40.3,39.8,29.71,North,0,0.0,-999.0,98,-99.99,,,0.54,Acu-Link.com,2013-10-31 20:12:00,
2013-10-31 16:27:00,40.5,39.9,29.69,North,0,0.0,-999.0,98,-99.99,,,0.57,Acu-Link.com,2013-10-31 20:27:00,
2013-10-31 16:42:00,40.5,39.9,29.69,North,0,0.0,-999.0,98,-99.99,,,0.60,Acu-Link.com,2013-10-31 20:42:00,
2013-10-31 16:58:00,40.3,39.8,29.68,North,0,0.0,-999.0,98,-99.99,,,0.63,Acu-Link.com,2013-10-31 20:58:00,
2013-10-31 17:13:00,40.1,39.6,29.68,North,0,0.0,-999.0,98,-99.99,,,0.66,Acu-Link.com,2013-10-31 21:13:00,
2013-10-31 17:28:00,40.1,39.6,29.67,North,0,0.0,-999.0,98,-99.99,,,0.70,Acu-Link.com,2013-10-31 21:28:00,
2013-10-31 17:43:00,39.9,39.4,29.67,North,0,0.0,-999.0,98,-99.99,,,0.71,Acu-Link.com,2013-10-31 21:43:00,
2013-10-31 17:58:00,40.3,39.8,29.67,North,0,0.0,-999.0,98,-99.99,,,0.72,Acu-Link.com,2013-10-31 21:58:00,
2013-10-31 18:14:00,40.5,39.9,29.67,North,0,0.0,-999.0,98,-99.99,,,0.73,Acu-Link.com,2013-10-31 22:14:00,
2013-10-31 18:29:00,41.0,40.5,29.66,North,0,0.0,-999.0,98,-99.99,,,0.73,Acu-Link.com,2013-10-31 22:29:00,
2013-10-31 18:44:00,43.0,42.5,29.66,North,0,0.0,-999.0,98,-99.99,,,0.74,Acu-Link.com,2013-10-31 22:44:00,
2013-10-31 18:59:00,46.2,45.7,29.65,North,0,2.7,-999.0,98,-99.99,,,0.74,Acu-Link.com,2013-10-31 22:59:00,
2013-10-31 19:14:00,46.4,45.9,29.65,WSW,247,0.0,-999.0,98,-99.99,,,0.76,Acu-Link.com,2013-10-31 23:14:00,
2013-10-31 19:30:00,48.7,48.2,29.64,NNW,337,0.0,-999.0,98,-99.99,,,0.77,Acu-Link.com,2013-10-31 23:30:00,
2013-10-31 19:45:00,49.6,49.1,29.63,West,270,2.7,-999.0,98,-99.99,,,0.78,Acu-Link.com,2013-10-31 23:45:00,
2013-10-31 20:00:00,50.4,49.8,29.62,SW,225,0.0,-999.0,98,-99.99,,,0.80,Acu-Link.com,2013-11-01 00:00:00,
2013-10-31 20:15:00,50.5,50.0,29.61,WSW,247,0.0,-999.0,98,-99.99,,,0.81,Acu-Link.com,2013-11-01 00:15:00,
2013-10-31 20:30:00,51.4,50.9,29.60,WSW,247,0.0,-999.0,98,-99.99,,,0.84,Acu-Link.com,2013-11-01 00:30:00,
2013-10-31 20:46:00,52.5,52.0,29.60,West,270,3.1,-999.0,98,-99.99,,,0.86,Acu-Link.com,2013-11-01 00:46:00,
2013-10-31 21:01:00,52.7,52.2,29.59,SW,225,0.0,-999.0,98,-99.99,,,0.91,Acu-Link.com,2013-11-01 01:01:00,
2013-10-31 21:16:00,52.9,52.3,29.58,North,0,0.0,-999.0,98,-99.99,,,0.94,Acu-Link.com,2013-11-01 01:16:00,
2013-10-31 21:31:00,52.9,52.3,29.57,WSW,247,2.7,-999.0,98,-99.99,,,0.98,Acu-Link.com,2013-11-01 01:31:00,
2013-10-31 21:47:00,53.1,52.5,29.57,West,270,0.0,-999.0,98,-99.99,,,1.03,Acu-Link.com,2013-11-01 01:47:00,
2013-10-31 22:02:00,53.1,52.5,29.57,WSW,247,0.0,-999.0,98,-99.99,,,1.07,Acu-Link.com,2013-11-01 02:02:00,
2013-10-31 22:17:00,53.4,52.9,29.56,SSW,202,4.3,-999.0,98,-99.99,,,1.11,Acu-Link.com,2013-11-01 02:17:00,
2013-10-31 22:32:00,54.0,53.4,29.55,West,270,2.7,-999.0,98,-99.99,,,1.13,Acu-Link.com,2013-11-01 02:32:00,
2013-10-31 22:47:00,54.0,53.4,29.55,West,270,3.8,-999.0,98,-99.99,,,1.18,Acu-Link.com,2013-11-01 02:47:00,
2013-10-31 23:02:00,54.0,53.4,29.54,WSW,247,0.0,-999.0,98,-99.99,,,1.20,Acu-Link.com,2013-11-01 03:02:00,
2013-10-31 23:18:00,54.0,53.4,29.53,WSW,247,2.2,-999.0,98,-99.99,,,1.23,Acu-Link.com,2013-11-01 03:18:00,
2013-10-31 23:33:00,54.0,53.4,29.52,West,270,3.1,-999.0,98,-99.99,,,1.25,Acu-Link.com,2013-11-01 03:33:00,
2013-10-31 23:48:00,54.1,53.6,29.51,WSW,247,3.1,-999.0,98,-99.99,,,1.30,Acu-Link.com,2013-11-01 03:48:00,